Time;durP1;ratioP1;P1;durP2;ratioP2;P2;SDS_P1;SDS_P2;PMS_P1;PMS_P2;Temp;Humidity;BMP_temperature;BMP_pressure;BME280_temperature;BME280_humidity;BME280_pressure;Samples;Min_cycle;Max_cycle;Signal;HPM_P1;HPM_P2
2022/04/29 00:01:05;;;;;;;12.88;5.22;;;;;;;7.90;69.89;102918.56;5032356;28;20088;-68
2022/04/29 00:03:33;;;;;;;11.10;5.22;;;;;;;7.86;69.60;102918.50;5032822;28;20050;-68
2022/04/29 00:06:00;;;;;;;14.40;5.07;;;;;;;7.85;70.41;102914.13;5032665;28;20130;-68
2022/04/29 00:08:28;;;;;;;14.13;6.07;;;;;;;7.81;70.42;102912.28;5032789;28;20141;-68
2022/04/29 00:10:56;;;;;;;9.88;5.57;;;;;;;7.77;70.61;102919.25;5032624;28;20488;-67
2022/04/29 00:13:23;;;;;;;12.18;6.30;;;;;;;7.74;70.39;102909.59;5033059;28;20049;-68
2022/04/29 00:15:51;;;;;;;12.15;5.90;;;;;;;7.71;70.79;102906.03;5032771;28;20042;-68
2022/04/29 00:18:18;;;;;;;10.88;5.45;;;;;;;7.68;71.11;102905.97;5032497;28;20044;-67
2022/04/29 00:20:45;;;;;;;9.40;4.95;;;;;;;7.65;71.18;102901.56;5032035;28;20045;-67
2022/04/29 00:23:12;;;;;;;11.55;5.32;;;;;;;7.60;71.25;102891.00;5032148;28;20512;-68
2022/04/29 00:25:39;;;;;;;12.55;6.03;;;;;;;7.58;71.13;102899.72;5032402;28;20048;-68
2022/04/29 00:28:07;;;;;;;11.65;6.15;;;;;;;7.53;70.99;102894.38;5032602;28;20525;-67
2022/04/29 00:30:35;;;;;;;12.18;5.75;;;;;;;7.51;71.56;102888.25;5031639;28;20046;-67
2022/04/29 00:33:03;;;;;;;19.40;6.30;;;;;;;7.51;70.98;102885.50;5031321;28;20041;-68
2022/04/29 00:35:30;;;;;;;12.35;6.05;;;;;;;7.43;71.48;102880.25;5030893;28;20591;-67
2022/04/29 00:37:58;;;;;;;10.93;5.65;;;;;;;7.38;71.75;102884.53;5032395;28;20465;-68
2022/04/29 00:40:28;;;;;;;10.00;5.63;;;;;;;7.33;71.41;102875.72;5032339;28;20038;-68
2022/04/29 00:42:57;;;;;;;15.48;5.95;;;;;;;7.31;71.67;102882.66;5031858;28;20121;-68
2022/04/29 00:45:25;;;;;;;11.70;5.50;;;;;;;7.26;71.79;102881.72;5032028;28;20046;-67
2022/04/29 00:47:53;;;;;;;13.02;5.35;;;;;;;7.21;72.02;102873.78;5030984;28;20080;-68
2022/04/29 00:50:26;;;;;;;10.23;5.65;;;;;;;7.18;71.85;102878.06;5031873;28;20042;-68
2022/04/29 00:52:56;;;;;;;11.27;5.53;;;;;;;7.13;72.52;102875.38;5032277;28;20046;-68
2022/04/29 00:55:24;;;;;;;9.18;5.60;;;;;;;7.09;72.65;102874.44;5032325;28;20034;-68
2022/04/29 00:58:16;;;;;;;12.07;5.63;;;;;;;7.06;72.09;102870.91;5031698;28;20483;-68
2022/04/29 01:00:43;;;;;;;12.50;6.20;;;;;;;7.02;72.65;102866.47;5031860;28;20042;-68
2022/04/29 01:03:14;;;;;;;14.55;5.63;;;;;;;6.99;72.67;102876.03;5032083;28;20042;-68
2022/04/29 01:05:42;;;;;;;17.85;5.97;;;;;;;6.96;72.66;102878.59;5031592;28;20132;-67
2022/04/29 01:08:10;;;;;;;12.57;6.40;;;;;;;6.93;72.72;102870.69;5031832;28;20046;-67
2022/04/29 01:10:38;;;;;;;12.20;5.85;;;;;;;6.91;72.91;102877.66;5031954;28;20577;-68
2022/04/29 01:13:05;;;;;;;16.17;6.15;;;;;;;6.90;72.63;102869.75;5032039;28;20455;-68
2022/04/29 01:15:33;;;;;;;12.52;5.75;;;;;;;6.88;72.71;102866.22;5032005;28;20045;-68
2022/04/29 01:18:06;;;;;;;11.27;6.57;;;;;;;6.90;72.86;102870.66;5032055;28;20096;-68
2022/04/29 01:20:34;;;;;;;12.17;6.00;;;;;;;6.84;73.33;102866.19;5031701;28;20056;-68
2022/04/29 01:23:07;;;;;;;12.45;6.10;;;;;;;6.83;73.06;102866.13;5030405;28;20260;-68
2022/04/29 01:25:38;;;;;;;12.25;5.97;;;;;;;6.80;73.25;102858.22;5030659;28;20057;-68
2022/04/29 01:28:06;;;;;;;13.35;6.22;;;;;;;6.80;73.30;102866.97;5031723;28;20104;-68
2022/04/29 01:30:39;;;;;;;9.15;5.47;;;;;;;6.79;72.78;102861.69;5030519;28;20041;-68
2022/04/29 01:33:07;;;;;;;12.40;6.50;;;;;;;6.76;73.15;102872.13;5030705;28;20046;-68
2022/04/29 01:35:34;;;;;;;11.60;6.50;;;;;;;6.73;73.54;102870.34;5033452;28;20448;-67
2022/04/29 01:38:01;;;;;;;13.48;5.97;;;;;;;6.71;73.32;102876.41;5050557;28;20044;-68
2022/04/29 01:40:29;;;;;;;9.77;5.97;;;;;;;6.70;73.22;102865.03;5033862;28;20038;-67
2022/04/29 01:43:02;;;;;;;15.43;6.70;;;;;;;6.67;73.65;102863.25;5033665;28;20042;-67
2022/04/29 01:45:29;;;;;;;12.95;6.13;;;;;;;6.65;73.84;102853.59;5033305;28;21049;-69
2022/04/29 01:48:07;;;;;;;11.73;6.20;;;;;;;6.63;74.23;102856.16;5033592;28;20050;-67
2022/04/29 01:50:49;;;;;;;11.73;6.63;;;;;;;6.61;74.00;102851.75;5033416;28;20053;-68
2022/04/29 01:53:16;;;;;;;16.75;6.57;;;;;;;6.60;73.77;102855.22;5034881;28;20494;-68
2022/04/29 01:55:44;;;;;;;14.77;6.80;;;;;;;6.60;73.76;102850.00;5049562;28;20423;-67
2022/04/29 01:58:13;;;;;;;12.68;6.35;;;;;;;6.56;73.76;102846.44;5033591;28;20080;-68
2022/04/29 02:00:41;;;;;;;11.35;6.82;;;;;;;6.52;73.91;102842.88;5033230;28;20042;-67
2022/04/29 02:03:09;;;;;;;16.40;6.45;;;;;;;6.50;74.19;102846.34;5033714;28;20048;-67
2022/04/29 02:05:36;;;;;;;11.10;7.03;;;;;;;6.50;74.11;102838.47;5040469;28;20049;-68
2022/04/29 02:08:04;;;;;;;16.20;6.95;;;;;;;6.46;74.35;102828.78;5043804;28;20038;-67
2022/04/29 02:10:32;;;;;;;12.73;6.82;;;;;;;6.43;74.66;102839.19;5044259;28;20073;-67
2022/04/29 02:12:59;;;;;;;12.45;6.57;;;;;;;6.40;74.79;102834.78;5042706;28;20044;-67
2022/04/29 02:15:49;;;;;;;19.15;6.60;;;;;;;6.36;74.93;102831.22;5045009;28;20056;-67
2022/04/29 02:18:16;;;;;;;15.38;7.05;;;;;;;6.35;74.81;102832.06;5036994;28;20112;-68
2022/04/29 02:20:43;;;;;;;15.27;6.85;;;;;;;6.34;75.10;102829.44;5033658;28;20042;-67
2022/04/29 02:23:10;;;;;;;14.85;6.55;;;;;;;6.33;74.98;102835.53;5034906;28;20064;-68
2022/04/29 02:25:38;;;;;;;18.33;7.38;;;;;;;6.32;74.99;102828.50;5033495;28;20061;-68
2022/04/29 02:28:05;;;;;;;13.63;6.85;;;;;;;6.30;75.19;102835.47;5032682;28;20050;-67
2022/04/29 02:30:33;;;;;;;16.70;7.38;;;;;;;6.30;74.99;102832.84;5033288;28;20061;-67
2022/04/29 02:33:00;;;;;;;14.07;7.13;;;;;;;6.27;75.18;102828.44;5034276;28;20120;-68
2022/04/29 02:35:27;;;;;;;11.40;7.63;;;;;;;6.27;75.09;102822.28;5032668;28;20176;-68
2022/04/29 02:37:56;;;;;;;17.65;8.10;;;;;;;6.23;75.44;102816.13;5032970;28;20487;-68
2022/04/29 02:40:24;;;;;;;12.30;6.65;;;;;;;6.20;75.27;102813.47;5034451;28;20050;-67
2022/04/29 02:42:51;;;;;;;19.70;7.45;;;;;;;6.20;75.34;102816.94;5015667;28;20427;-67
2022/04/29 02:45:20;;;;;;;11.52;7.00;;;;;;;6.19;75.37;102817.78;5032584;28;20050;-68
2022/04/29 02:47:50;;;;;;;13.00;7.03;;;;;;;6.19;75.37;102822.16;5032796;28;20038;-68
2022/04/29 02:50:17;;;;;;;13.48;7.00;;;;;;;6.18;75.77;102821.25;5049481;28;20061;-68
2022/04/29 02:52:58;;;;;;;15.90;8.35;;;;;;;6.17;75.67;102822.13;5032604;28;20784;-67
2022/04/29 02:55:25;;;;;;;18.00;7.63;;;;;;;6.16;75.72;102809.88;5032427;28;20045;-67
2022/04/29 02:58:05;;;;;;;11.02;6.88;;;;;;;6.16;75.90;102803.75;5032613;28;20048;-67
2022/04/29 03:00:32;;;;;;;16.25;7.75;;;;;;;6.15;75.84;102809.84;5032791;28;20048;-67
2022/04/29 03:02:59;;;;;;;15.13;7.47;;;;;;;6.15;75.64;102809.84;5031929;28;20046;-67
2022/04/29 03:05:27;;;;;;;15.02;7.65;;;;;;;6.16;75.65;102804.63;5032790;28;20065;-68
2022/04/29 03:07:54;;;;;;;18.25;7.78;;;;;;;6.15;75.94;102805.50;5033000;28;20072;-67
2022/04/29 03:10:21;;;;;;;15.57;7.50;;;;;;;6.14;75.66;102801.13;5032635;28;20053;-68
2022/04/29 03:12:49;;;;;;;18.17;8.02;;;;;;;6.14;76.05;102802.84;5032014;28;20046;-68
2022/04/29 03:15:25;;;;;;;13.88;8.13;;;;;;;6.13;75.56;102804.59;5032611;28;20045;-67
2022/04/29 03:20:43;;;;;;;16.80;7.93;;;;;;;6.09;75.74;102805.38;5049049;28;20070;-68
2022/04/29 03:23:11;;;;;;;13.07;8.15;;;;;;;6.05;75.82;102806.19;5033640;28;20100;-68
2022/04/29 03:25:43;;;;;;;17.55;7.43;;;;;;;6.02;76.08;102803.50;5032068;28;20041;-68
2022/04/29 03:28:10;;;;;;;14.75;8.38;;;;;;;6.01;75.89;102804.34;5033585;28;20530;-67
2022/04/29 03:30:38;;;;;;;16.98;8.02;;;;;;;5.97;76.15;102803.38;5032382;28;20042;-67
2022/04/29 03:33:10;;;;;;;19.60;8.27;;;;;;;5.96;76.42;102803.31;5032137;28;20778;-68
2022/04/29 03:35:42;;;;;;;19.33;8.38;;;;;;;5.93;76.43;102804.16;5031655;28;20062;-68
2022/04/29 03:38:21;;;;;;;14.30;8.43;;;;;;;5.90;76.05;102810.22;5048300;28;20038;-68
2022/04/29 03:40:50;;;;;;;13.15;8.65;;;;;;;5.89;76.11;102807.56;5033471;28;20058;-67
2022/04/29 03:43:20;;;;;;;15.05;7.97;;;;;;;5.87;76.10;102809.25;5031734;28;20042;-68
2022/04/29 03:45:47;;;;;;;15.30;8.07;;;;;;;5.84;76.17;102801.34;5032213;28;20393;-67
2022/04/29 03:48:25;;;;;;;17.17;8.25;;;;;;;5.81;76.17;102801.25;5031998;28;20053;-68
2022/04/29 03:51:04;;;;;;;21.48;8.30;;;;;;;5.79;76.40;102801.25;5031656;28;20046;-67
2022/04/29 03:53:31;;;;;;;14.23;8.25;;;;;;;5.77;76.47;102797.69;5033155;28;20097;-67
2022/04/29 03:56:02;;;;;;;14.30;8.50;;;;;;;5.75;76.38;102799.41;5032224;28;20046;-68
2022/04/29 03:58:29;;;;;;;15.40;8.18;;;;;;;5.74;76.29;102805.50;5033016;28;20050;-68
2022/04/29 04:00:56;;;;;;;16.40;8.20;;;;;;;5.72;76.23;102804.59;5048121;28;20042;-67
2022/04/29 04:03:47;;;;;;;14.52;8.20;;;;;;;5.69;76.22;102799.28;5034494;28;20120;-68
2022/04/29 04:09:06;;;;;;;16.75;8.63;;;;;;;5.70;76.75;102780.13;5048030;28;20074;-67
2022/04/29 04:11:33;;;;;;;17.52;8.65;;;;;;;5.69;76.81;102767.88;5032983;28;20049;-68
2022/04/29 04:14:00;;;;;;;18.80;8.38;;;;;;;5.69;76.79;102767.88;5032838;28;20471;-67
2022/04/29 04:16:38;;;;;;;20.15;9.57;;;;;;;5.67;76.53;102770.47;5031284;28;20105;-68
2022/04/29 04:19:06;;;;;;;18.88;8.45;;;;;;;5.67;76.65;102782.66;5031486;28;20523;-68
2022/04/29 04:21:34;;;;;;;19.95;8.93;;;;;;;5.67;76.71;102780.94;5032483;28;20684;-68
2022/04/29 04:24:03;;;;;;;17.20;9.43;;;;;;;5.68;76.88;102787.94;5031416;28;20071;-68
2022/04/29 04:26:32;;;;;;;19.63;9.32;;;;;;;5.70;76.49;102787.97;5047398;28;20500;-68
2022/04/29 04:29:03;;;;;;;18.77;9.43;;;;;;;5.73;76.28;102788.03;5047631;28;20978;-68
2022/04/29 04:31:37;;;;;;;15.93;9.32;;;;;;;5.76;76.14;102803.78;5031010;28;20046;-67
2022/04/29 04:34:49;;;;;;;17.45;9.70;;;;;;;5.81;75.68;102806.50;5047686;28;20061;-68
2022/04/29 04:36:54;;;;;;;20.98;9.63;;;;;;;5.86;76.14;102810.13;5047300;28;20529;-67
2022/04/29 04:39:24;;;;;;;17.05;8.73;;;;;;;5.89;75.95;102811.06;5031183;28;20038;-68
2022/04/29 04:41:57;;;;;;;17.57;9.07;;;;;;;5.92;76.11;102805.00;5047849;28;20053;-67
2022/04/29 04:44:35;;;;;;;16.45;9.07;;;;;;;5.95;75.98;102804.19;5031247;28;20077;-67
2022/04/29 04:47:05;;;;;;;17.92;9.05;;;;;;;5.96;75.97;102796.34;5030911;28;20050;-67
2022/04/29 04:49:52;;;;;;;15.15;9.07;;;;;;;5.99;76.02;102792.91;5032231;28;20451;-68
2022/04/29 04:52:25;;;;;;;16.50;8.95;;;;;;;5.99;76.01;102782.44;5030489;28;20117;-68
2022/04/29 04:54:52;;;;;;;18.70;8.60;;;;;;;6.01;76.30;102783.41;5031002;28;20141;-67
2022/04/29 04:57:22;;;;;;;20.67;8.57;;;;;;;6.05;76.08;102782.63;5031022;28;20050;-68
2022/04/29 04:59:49;;;;;;;17.85;9.48;;;;;;;6.07;76.16;102783.50;5031010;28;20120;-68
2022/04/29 05:02:17;;;;;;;16.73;8.32;;;;;;;6.10;76.09;102778.34;5047443;28;20046;-67
2022/04/29 05:05:04;;;;;;;17.90;8.55;;;;;;;6.11;75.99;102781.81;5031965;28;20404;-66
2022/04/29 05:07:31;;;;;;;19.45;9.07;;;;;;;6.13;75.92;102796.72;5033042;28;20456;-68
2022/04/29 05:09:59;;;;;;;16.88;9.25;;;;;;;6.16;75.63;102795.91;5034373;28;20100;-66
2022/04/29 05:12:26;;;;;;;15.95;9.38;;;;;;;6.20;75.65;102795.13;5034156;28;20042;-67
2022/04/29 05:15:12;;;;;;;17.20;9.35;;;;;;;6.24;75.48;102793.44;5033418;28;20045;-67
2022/04/29 05:17:41;;;;;;;17.45;8.52;;;;;;;6.28;75.51;102777.81;5035446;28;20073;-66
2022/04/29 05:20:16;;;;;;;20.30;9.57;;;;;;;6.32;75.27;102786.59;5035370;28;20038;-67
2022/04/29 05:22:48;;;;;;;17.52;9.38;;;;;;;6.39;75.27;102798.09;5034397;28;20049;-68
2022/04/29 05:25:15;;;;;;;20.73;9.45;;;;;;;6.42;75.09;102799.03;5033749;28;20053;-67
2022/04/29 05:28:03;;;;;;;19.60;10.02;;;;;;;6.47;75.19;102796.47;5035198;28;20169;-68
2022/04/29 05:30:49;;;;;;;19.20;10.05;;;;;;;6.49;75.02;102807.88;5035391;28;20157;-67
2022/04/29 05:33:38;;;;;;;18.65;8.75;;;;;;;6.52;74.87;102802.66;5035367;28;20405;-67
2022/04/29 05:36:35;;;;;;;19.60;9.02;;;;;;;6.60;74.79;102810.69;5034451;28;20124;-68
2022/04/29 05:42:18;;;;;;;17.25;8.57;;;;;;;6.64;74.59;102805.53;5035160;28;20046;-67
2022/04/29 05:44:46;;;;;;;17.42;8.88;;;;;;;6.64;74.59;102802.91;5035026;28;20050;-67
2022/04/29 05:47:17;;;;;;;19.50;8.52;;;;;;;6.67;74.65;102802.97;5050220;28;20041;-67
2022/04/29 05:49:47;;;;;;;20.23;9.50;;;;;;;6.71;74.59;102803.88;5033604;28;20045;-68
2022/04/29 05:52:14;;;;;;;21.75;8.80;;;;;;;6.73;74.40;102799.56;5033517;28;20049;-67
2022/04/29 05:54:45;;;;;;;17.40;9.02;;;;;;;6.74;74.51;102801.34;5049617;28;20583;-67
2022/04/29 05:57:16;;;;;;;22.45;9.23;;;;;;;6.77;74.33;102803.97;5033527;28;20488;-68
2022/04/29 05:59:44;;;;;;;15.02;8.85;;;;;;;6.80;74.29;102804.03;5034605;28;20049;-68
2022/04/29 06:02:26;;;;;;;18.13;9.38;;;;;;;6.83;74.36;102804.09;5033110;28;20045;-67
2022/04/29 06:05:08;;;;;;;18.23;9.77;;;;;;;6.86;74.26;102803.25;5034591;28;20056;-67
2022/04/29 06:07:37;;;;;;;19.55;8.65;;;;;;;6.93;74.04;102806.88;5033250;28;20046;-67
2022/04/29 06:10:05;;;;;;;17.58;9.57;;;;;;;6.95;73.90;102805.16;5033846;28;20073;-68
2022/04/29 06:12:42;;;;;;;16.85;8.68;;;;;;;6.98;73.89;102807.81;5033118;28;20081;-67
2022/04/29 06:15:17;;;;;;;19.42;9.38;;;;;;;7.01;73.83;102810.50;5049839;28;20125;-67
2022/04/29 06:18:14;;;;;;;16.80;8.68;;;;;;;7.09;73.63;102813.25;5037059;28;20132;-68
2022/04/29 06:21:04;;;;;;;17.25;8.80;;;;;;;7.18;73.30;102807.25;5049525;28;20034;-67
2022/04/29 06:23:49;;;;;;;18.38;9.20;;;;;;;7.28;73.12;102807.44;5032917;28;20046;-66
2022/04/29 06:26:19;;;;;;;18.60;9.27;;;;;;;7.37;72.65;102805.78;5033353;28;20057;-67
2022/04/29 06:28:46;;;;;;;14.90;9.60;;;;;;;7.45;72.57;102802.44;5032866;28;20050;-67
2022/04/29 06:31:14;;;;;;;20.10;8.70;;;;;;;7.53;72.28;102813.00;5033344;28;20074;-67
2022/04/29 06:34:04;;;;;;;19.15;9.55;;;;;;;7.61;72.02;102808.78;5034392;28;20045;-67
2022/04/29 06:36:31;;;;;;;17.92;9.85;;;;;;;7.70;71.70;102813.25;5033970;28;20053;-68
2022/04/29 06:39:00;;;;;;;19.27;9.50;;;;;;;7.78;71.49;102814.22;5032920;28;20044;-68
2022/04/29 06:42:06;;;;;;;;;;;;;;;7.85;71.24;102809.94;5052867;28;20531;-66
2022/04/29 06:44:59;;;;;;;19.75;8.75;;;;;;;7.95;70.76;102816.19;5033896;28;20031;-67
2022/04/29 06:47:44;;;;;;;18.55;8.95;;;;;;;7.95;70.50;102820.56;5033670;28;20046;-67
2022/04/29 06:50:34;;;;;;;20.20;8.90;;;;;;;8.03;70.59;102822.41;5041227;28;20065;-67
2022/04/29 06:53:20;;;;;;;19.65;9.05;;;;;;;8.16;70.20;102820.81;5034034;28;20108;-68
2022/04/29 06:55:47;;;;;;;18.17;9.07;;;;;;;8.22;69.69;102820.91;5032413;28;20053;-67
2022/04/29 06:58:14;;;;;;;16.40;8.93;;;;;;;8.31;69.67;102820.09;5032756;28;20042;-68
2022/04/29 07:00:43;;;;;;;18.40;9.13;;;;;;;8.40;69.10;102819.31;5032602;28;20577;-68
2022/04/29 07:03:11;;;;;;;18.98;9.60;;;;;;;8.51;68.92;102822.09;5032580;28;20052;-67
2022/04/29 07:05:41;;;;;;;20.85;9.68;;;;;;;8.61;68.66;102820.44;5031810;28;20093;-68
2022/04/29 07:08:12;;;;;;;23.85;8.60;;;;;;;8.69;67.93;102818.75;5032737;28;20041;-68
2022/04/29 07:11:14;;;;;;;17.13;8.30;;;;;;;8.76;67.88;102820.56;5033753;28;20128;-69
2022/04/29 07:14:06;;;;;;;18.55;8.73;;;;;;;8.89;67.43;102832.09;5032533;28;20049;-68
2022/04/29 07:16:49;;;;;;;22.27;9.07;;;;;;;9.00;67.21;102824.28;5032001;28;20053;-67
2022/04/29 07:19:30;;;;;;;23.77;8.98;;;;;;;9.18;67.10;102813.03;5048740;28;20045;-68
2022/04/29 07:22:17;;;;;;;17.10;8.65;;;;;;;9.30;66.36;102825.38;5033525;28;20038;-68
2022/04/29 07:24:45;;;;;;;17.02;8.98;;;;;;;9.37;66.17;102826.31;5033525;28;20049;-67
2022/04/29 07:27:13;;;;;;;21.20;8.30;;;;;;;9.40;65.65;102821.06;5031923;28;20121;-68
2022/04/29 07:29:41;;;;;;;18.15;8.00;;;;;;;9.47;65.32;102823.72;5032379;28;20046;-68
2022/04/29 07:32:14;;;;;;;14.02;8.23;;;;;;;9.55;65.36;102817.66;5032170;28;20594;-67
2022/04/29 07:43:43;;;;;;;16.63;8.65;;;;;;;10.12;63.63;102811.72;5048441;28;20054;-67
2022/04/29 07:46:12;;;;;;;15.85;8.60;;;;;;;10.31;63.16;102810.03;5031348;28;20125;-68
2022/04/29 07:49:00;;;;;;;14.98;8.02;;;;;;;10.45;62.48;102808.31;5032047;28;20140;-68
2022/04/29 07:51:27;;;;;;;15.70;8.07;;;;;;;10.63;61.73;102819.81;5031902;28;20065;-68
2022/04/29 07:53:54;;;;;;;18.83;8.13;;;;;;;10.74;60.98;102820.66;5031357;28;20522;-67
2022/04/29 07:56:21;;;;;;;15.18;7.63;;;;;;;10.74;60.47;102815.38;5031850;28;20034;-67
2022/04/29 07:58:50;;;;;;;19.73;8.45;;;;;;;10.81;60.89;102816.28;5031664;28;20526;-68
2022/04/29 08:01:17;;;;;;;14.38;8.60;;;;;;;11.02;60.29;102815.41;5031759;28;20077;-68
2022/04/29 08:03:46;;;;;;;14.20;8.38;;;;;;;11.26;59.44;102817.13;5031243;28;20512;-68
2022/04/29 08:06:19;;;;;;;18.95;8.57;;;;;;;11.46;58.75;102816.22;5033105;28;20042;-67
2022/04/29 08:08:46;;;;;;;14.50;8.32;;;;;;;11.69;58.77;102824.06;5047877;28;20054;-68
2022/04/29 08:11:16;;;;;;;15.68;8.43;;;;;;;11.98;58.50;102817.81;5047992;28;20470;-68
2022/04/29 08:14:02;;;;;;;14.60;8.02;;;;;;;12.20;57.56;102823.88;5032124;28;20050;-68
2022/04/29 08:17:12;;;;;;;27.15;8.77;;;;;;;12.16;57.78;102821.28;5031462;28;20061;-67
2022/04/29 08:19:45;;;;;;;13.68;8.77;;;;;;;12.24;58.46;102817.69;5033091;28;20030;-67
2022/04/29 08:22:21;;;;;;;13.63;8.52;;;;;;;12.41;57.61;102828.16;5032006;28;20492;-67
2022/04/29 08:24:49;;;;;;;19.38;8.82;;;;;;;12.61;56.79;102815.69;5047929;28;20038;-68
2022/04/29 08:27:17;;;;;;;17.75;8.02;;;;;;;12.69;55.78;102820.03;5031113;28;20129;-68
2022/04/29 08:29:54;;;;;;;17.40;8.38;;;;;;;12.74;55.78;102817.34;5032761;28;20496;-68
2022/04/29 08:32:21;;;;;;;15.23;7.88;;;;;;;12.70;55.58;102810.34;5032130;28;20061;-68
2022/04/29 08:34:49;;;;;;;14.32;8.43;;;;;;;12.65;55.88;102810.38;5031030;28;20129;-67
2022/04/29 08:37:18;;;;;;;18.40;8.45;;;;;;;12.51;56.00;102810.47;5032295;28;20096;-68
2022/04/29 08:39:46;;;;;;;29.95;11.68;;;;;;;12.48;57.21;102820.16;5031516;28;20133;-68
2022/04/29 08:42:18;;;;;;;16.10;8.15;;;;;;;12.56;56.70;102818.38;5047229;28;20569;-68
2022/04/29 08:44:50;;;;;;;12.25;7.38;;;;;;;12.52;56.39;102819.28;5030730;28;20073;-68
2022/04/29 08:47:44;;;;;;;16.77;8.55;;;;;;;12.56;56.95;102815.72;5017561;28;20719;-69
2022/04/29 08:50:21;;;;;;;14.90;7.97;;;;;;;12.67;56.46;102810.34;5031024;28;20126;-67
2022/04/29 08:52:49;;;;;;;17.65;8.38;;;;;;;12.72;56.31;102808.53;5032161;28;20531;-68
2022/04/29 09:00:49;;;;;;;20.38;9.40;;;;;;;12.93;55.72;102825.13;5032152;28;20046;-69
2022/04/29 09:03:22;;;;;;;17.13;8.27;;;;;;;13.00;55.65;102830.34;5030582;28;20073;-68
2022/04/29 09:05:51;;;;;;;16.17;8.82;;;;;;;13.05;55.66;102833.84;5032034;28;20042;-68
2022/04/29 09:08:21;;;;;;;18.52;8.68;;;;;;;13.19;55.36;102825.78;5032064;28;20124;-68
2022/04/29 09:10:57;;;;;;;20.58;8.30;;;;;;;13.45;54.99;102823.78;5031683;28;20093;-68
2022/04/29 09:13:30;;;;;;;16.52;8.50;;;;;;;13.73;54.21;102828.75;5031998;28;20081;-68
2022/04/29 09:16:06;;;;;;;14.35;8.40;;;;;;;14.06;53.12;102830.09;5032106;28;20046;-68
2022/04/29 09:18:39;;;;;;;16.92;8.10;;;;;;;14.35;52.34;102828.81;5030478;28;20046;-69
2022/04/29 09:21:09;;;;;;;16.58;8.10;;;;;;;14.45;52.09;102826.94;5031697;28;20562;-68
2022/04/29 09:23:47;;;;;;;16.77;8.45;;;;;;;14.46;50.85;102820.72;5031868;28;20049;-68
2022/04/29 09:26:35;;;;;;;14.85;8.48;;;;;;;14.52;51.52;102823.28;5032030;28;20069;-68
2022/04/29 09:29:20;;;;;;;16.98;8.43;;;;;;;14.69;51.46;102817.72;5032350;28;20499;-68
2022/04/29 09:32:19;;;;;;;14.32;8.10;;;;;;;14.86;51.31;102817.47;5030635;28;20890;-68
2022/04/29 09:35:42;;;;;;;18.38;8.10;;;;;;;15.03;51.68;102821.59;5030826;28;20049;-67
2022/04/29 09:40:58;;;;;;;20.58;7.53;;;;;;;15.17;49.67;102818.69;5031615;28;20069;-68
2022/04/29 09:43:45;;;;;;;15.68;7.05;;;;;;;15.15;49.70;102826.69;5031179;28;20050;-69
2022/04/29 09:46:23;;;;;;;15.75;7.45;;;;;;;15.09;49.61;102810.88;5031570;28;20042;-67
2022/04/29 09:49:08;;;;;;;16.13;7.05;;;;;;;15.07;49.60;102813.53;5031591;28;20697;-68
2022/04/29 09:51:44;;;;;;;14.45;7.30;;;;;;;15.04;49.72;102808.31;5031326;28;20100;-68
2022/04/29 09:54:26;;;;;;;16.77;8.10;;;;;;;15.19;50.09;102799.19;5032172;28;20042;-68
2022/04/29 09:57:08;;;;;;;13.50;6.32;;;;;;;15.33;49.05;102793.59;5034904;28;20537;-68
2022/04/29 09:59:38;;;;;;;16.23;7.20;;;;;;;15.34;49.32;102789.16;5034458;28;20480;-67
2022/04/29 10:02:07;;;;;;;14.18;7.60;;;;;;;15.51;49.61;102776.41;5034911;28;20050;-68
2022/04/29 10:04:39;;;;;;;12.05;7.50;;;;;;;15.83;48.88;102782.81;5034650;28;20134;-68
2022/04/29 10:07:11;;;;;;;14.30;7.20;;;;;;;16.14;47.62;102768.00;5034738;28;20053;-68
2022/04/29 10:09:49;;;;;;;16.60;7.43;;;;;;;16.36;47.90;102771.03;5049477;28;20544;-68
2022/04/29 10:12:20;;;;;;;11.93;7.00;;;;;;;16.49;47.61;102774.25;5034513;28;20069;-68
2022/04/29 10:15:16;;;;;;;14.20;7.45;;;;;;;16.66;47.35;102781.81;5033077;28;20057;-68
2022/04/29 10:23:38;;;;;;;16.20;7.13;;;;;;;16.81;46.67;102782.38;5034046;28;20038;-68
2022/04/29 10:26:05;;;;;;;15.38;6.68;;;;;;;16.79;45.50;102802.81;5034583;28;20046;-68
2022/04/29 10:28:33;;;;;;;12.98;6.90;;;;;;;16.57;46.02;102798.03;5034277;28;20547;-68
2022/04/29 10:31:06;;;;;;;16.42;7.30;;;;;;;16.39;46.90;102794.91;5033840;28;20548;-68
2022/04/29 10:33:36;;;;;;;16.67;6.50;;;;;;;16.18;46.98;102790.94;5034099;28;20046;-68
2022/04/29 10:36:09;;;;;;;15.02;6.95;;;;;;;15.99;48.04;102790.50;5033900;28;20057;-67
2022/04/29 10:38:39;;;;;;;29.15;7.47;;;;;;;15.79;48.11;102781.16;5034280;28;20112;-68
2022/04/29 10:41:24;;;;;;;13.02;6.07;;;;;;;15.63;48.23;102774.38;5034339;28;20130;-67
2022/04/29 10:43:52;;;;;;;14.63;6.20;;;;;;;15.45;48.59;102771.22;5049299;28;20082;-68
2022/04/29 10:46:39;;;;;;;13.60;6.55;;;;;;;15.41;48.23;102782.81;5034009;28;20133;-67
2022/04/29 10:49:39;;;;;;;32.88;8.15;;;;;;;15.47;49.14;102784.47;5043126;28;20554;-69
2022/04/29 10:52:25;;;;;;;13.88;6.38;;;;;;;15.59;48.76;102797.50;5034382;28;20117;-67
2022/04/29 10:55:05;;;;;;;15.38;6.85;;;;;;;15.57;48.79;102788.69;5039466;28;20050;-68
2022/04/29 10:57:43;;;;;;;16.20;6.43;;;;;;;15.57;48.36;102795.78;5037958;28;20048;-67
2022/04/29 11:00:22;;;;;;;14.77;6.15;;;;;;;15.46;47.93;102788.06;5032322;28;20038;-69
2022/04/29 11:02:51;;;;;;;13.73;5.88;;;;;;;15.42;48.73;102787.22;5032839;28;20048;-69
2022/04/29 11:05:40;;;;;;;10.30;5.57;;;;;;;15.45;48.19;102778.31;5033709;28;20037;-68
2022/04/29 11:08:09;;;;;;;14.02;6.43;;;;;;;15.49;48.61;102787.97;5033528;28;20049;-68
2022/04/29 11:10:58;;;;;;;15.68;6.40;;;;;;;15.54;47.80;102783.44;5033778;28;20153;-70
2022/04/29 11:13:37;;;;;;;13.18;5.63;;;;;;;15.57;48.53;102772.72;5048578;28;20100;-67
2022/04/29 11:16:56;;;;;;;18.00;6.17;;;;;;;15.50;47.84;102764.03;5033418;28;20523;-68
2022/04/29 11:19:48;;;;;;;10.38;5.35;;;;;;;15.47;47.73;102761.44;5033450;28;20474;-69
2022/04/29 11:25:10;;;;;;;15.50;5.97;;;;;;;15.38;48.03;102769.59;5033660;28;20044;-68
2022/04/29 11:27:40;;;;;;;12.95;6.13;;;;;;;15.47;47.80;102761.44;5032863;28;20049;-68
2022/04/29 11:30:23;;;;;;;15.15;6.28;;;;;;;15.42;47.46;102757.97;5032159;28;20088;-69
2022/04/29 11:32:53;;;;;;;11.13;5.70;;;;;;;15.37;47.98;102763.38;5033185;28;20042;-69
2022/04/29 11:35:23;;;;;;;13.20;5.50;;;;;;;15.37;47.74;102755.41;5033218;28;20050;-68
2022/04/29 11:37:51;;;;;;;12.35;6.35;;;;;;;15.43;48.04;102765.03;5033236;28;20574;-68
2022/04/29 11:40:19;;;;;;;16.38;7.05;;;;;;;15.39;48.02;102755.41;5032993;28;20050;-68
2022/04/29 11:42:50;;;;;;;11.55;6.10;;;;;;;15.34;48.32;102752.84;5033227;28;20510;-68
2022/04/29 11:45:22;;;;;;;10.27;6.07;;;;;;;15.24;48.72;102747.72;5033235;28;20041;-67
2022/04/29 11:47:50;;;;;;;12.88;6.20;;;;;;;15.09;48.83;102757.75;5032876;28;20046;-69
2022/04/29 11:50:30;;;;;;;12.88;6.30;;;;;;;15.12;49.00;102751.50;5032232;28;20116;-69
2022/04/29 11:53:10;;;;;;;12.68;6.80;;;;;;;15.15;49.74;102749.66;5033080;28;20590;-68
2022/04/29 11:55:38;;;;;;;10.35;6.93;;;;;;;15.29;49.69;102753.84;5031883;28;20504;-68
2022/04/29 11:58:07;;;;;;;13.48;7.50;;;;;;;15.37;49.84;102755.41;5032562;28;20050;-68
2022/04/29 12:00:35;;;;;;;13.15;7.30;;;;;;;15.41;49.47;102750.03;5032858;28;20050;-69
2022/04/29 12:03:04;;;;;;;13.23;7.32;;;;;;;15.34;49.71;102762.56;5031292;28;20396;-68
2022/04/29 12:05:32;;;;;;;12.65;7.28;;;;;;;15.26;50.04;102753.88;5032648;28;20054;-68
2022/04/29 12:08:05;;;;;;;14.02;7.18;;;;;;;15.25;50.19;102754.78;5031559;28;20046;-68
2022/04/29 12:10:41;;;;;;;16.23;7.57;;;;;;;15.34;50.74;102759.91;5031707;28;20587;-68
2022/04/29 12:13:09;;;;;;;13.50;7.53;;;;;;;15.45;49.97;102757.06;5032153;28;20542;-68
2022/04/29 12:15:42;;;;;;;16.90;7.20;;;;;;;15.41;49.33;102756.25;5031390;28;20046;-68
2022/04/29 12:18:12;;;;;;;14.40;6.70;;;;;;;15.33;49.75;102752.84;5031596;28;20120;-67
2022/04/29 12:21:00;;;;;;;14.88;7.30;;;;;;;15.31;49.96;102750.22;5031566;28;20049;-68
2022/04/29 12:23:33;;;;;;;15.48;7.18;;;;;;;15.22;49.88;102761.03;5031374;28;20097;-67
2022/04/29 12:26:01;;;;;;;14.43;7.35;;;;;;;15.18;50.07;102749.59;5032774;28;20037;-68